sensor_id;sensor_type;location;lat;lon;timestamp;pressure;altitude;pressure_sealevel;temperature;humidity
45941;BME280;31858;46.008;8.978;2023-06-22T00:09:30;94976.28;;;21.57;100.00
45941;BME280;31858;46.008;8.978;2023-06-22T00:19:34;94973.38;;;21.77;100.00
45941;BME280;31858;46.008;8.978;2023-06-22T00:29:35;94973.25;;;21.68;100.00
45941;BME280;31858;46.008;8.978;2023-06-22T00:39:38;94970.97;;;21.54;100.00
45941;BME280;31858;46.008;8.978;2023-06-22T00:49:40;94966.03;;;21.36;100.00
45941;BME280;31858;46.008;8.978;2023-06-22T00:59:43;94972.22;;;21.36;100.00
45941;BME280;31858;46.008;8.978;2023-06-22T01:09:52;94985.28;;;21.54;100.00
45941;BME280;31858;46.008;8.978;2023-06-22T01:20:00;94985.06;;;21.48;100.00
45941;BME280;31858;46.008;8.978;2023-06-22T01:30:06;94990.84;;;21.63;100.00
45941;BME280;31858;46.008;8.978;2023-06-22T01:40:11;94992.00;;;21.49;100.00
45941;BME280;31858;46.008;8.978;2023-06-22T01:50:14;94989.41;;;21.59;100.00
45941;BME280;31858;46.008;8.978;2023-06-22T02:00:20;94972.72;;;21.60;100.00
45941;BME280;31858;46.008;8.978;2023-06-22T02:10:26;94966.44;;;21.63;100.00
45941;BME280;31858;46.008;8.978;2023-06-22T02:20:29;94979.66;;;21.61;100.00
45941;BME280;31858;46.008;8.978;2023-06-22T02:30:32;94975.84;;;21.46;100.00
45941;BME280;31858;46.008;8.978;2023-06-22T02:40:33;94942.66;;;21.55;100.00
45941;BME280;31858;46.008;8.978;2023-06-22T02:50:36;94924.53;;;21.52;100.00
45941;BME280;31858;46.008;8.978;2023-06-22T03:00:38;94932.75;;;21.35;100.00
45941;BME280;31858;46.008;8.978;2023-06-22T03:10:41;94882.34;;;21.38;100.00
45941;BME280;31858;46.008;8.978;2023-06-22T03:20:42;94975.13;;;21.71;100.00
45941;BME280;31858;46.008;8.978;2023-06-22T03:30:45;94957.91;;;21.36;100.00
45941;BME280;31858;46.008;8.978;2023-06-22T03:40:47;94929.81;;;21.30;100.00
45941;BME280;31858;46.008;8.978;2023-06-22T03:50:50;94985.94;;;21.00;100.00
45941;BME280;31858;46.008;8.978;2023-06-22T04:00:52;95009.84;;;20.89;100.00
45941;BME280;31858;46.008;8.978;2023-06-22T04:10:55;94987.72;;;21.07;100.00
45941;BME280;31858;46.008;8.978;2023-06-22T04:20:57;94919.88;;;21.10;100.00
45941;BME280;31858;46.008;8.978;2023-06-22T04:31:00;94966.19;;;21.16;100.00
45941;BME280;31858;46.008;8.978;2023-06-22T04:41:02;94974.06;;;21.10;100.00
45941;BME280;31858;46.008;8.978;2023-06-22T04:51:05;94919.97;;;21.36;100.00
45941;BME280;31858;46.008;8.978;2023-06-22T05:01:08;94924.72;;;21.32;100.00
45941;BME280;31858;46.008;8.978;2023-06-22T05:11:12;94928.84;;;21.36;100.00
45941;BME280;31858;46.008;8.978;2023-06-22T05:21:13;94958.72;;;21.20;100.00
45941;BME280;31858;46.008;8.978;2023-06-22T05:31:17;94974.50;;;21.38;100.00
45941;BME280;31858;46.008;8.978;2023-06-22T05:41:20;94958.78;;;21.33;100.00
45941;BME280;31858;46.008;8.978;2023-06-22T05:51:22;94950.63;;;21.04;100.00
45941;BME280;31858;46.008;8.978;2023-06-22T06:01:24;94978.50;;;21.04;100.00
45941;BME280;31858;46.008;8.978;2023-06-22T06:11:27;94983.81;;;21.08;100.00
45941;BME280;31858;46.008;8.978;2023-06-22T06:21:29;94986.56;;;21.21;100.00
45941;BME280;31858;46.008;8.978;2023-06-22T06:31:32;94964.53;;;21.35;100.00
45941;BME280;31858;46.008;8.978;2023-06-22T06:41:33;94963.75;;;21.34;100.00
45941;BME280;31858;46.008;8.978;2023-06-22T06:51:36;94960.53;;;21.39;100.00
45941;BME280;31858;46.008;8.978;2023-06-22T07:01:38;94964.22;;;21.45;100.00
45941;BME280;31858;46.008;8.978;2023-06-22T07:11:41;94975.72;;;21.49;100.00
45941;BME280;31858;46.008;8.978;2023-06-22T07:21:43;94964.06;;;21.91;100.00
45941;BME280;31858;46.008;8.978;2023-06-22T07:31:47;94964.38;;;21.80;100.00
45941;BME280;31858;46.008;8.978;2023-06-22T07:41:50;94957.66;;;21.85;100.00
45941;BME280;31858;46.008;8.978;2023-06-22T07:51:52;94945.63;;;21.98;100.00
45941;BME280;31858;46.008;8.978;2023-06-22T08:01:55;94936.97;;;22.03;100.00
45941;BME280;31858;46.008;8.978;2023-06-22T08:11:58;94903.78;;;22.34;100.00
45941;BME280;31858;46.008;8.978;2023-06-22T08:21:59;94908.00;;;22.35;100.00
45941;BME280;31858;46.008;8.978;2023-06-22T08:32:03;94932.66;;;22.40;100.00
45941;BME280;31858;46.008;8.978;2023-06-22T08:42:05;94951.09;;;22.45;100.00
45941;BME280;31858;46.008;8.978;2023-06-22T08:52:08;94946.59;;;22.64;100.00
45941;BME280;31858;46.008;8.978;2023-06-22T09:02:10;94945.44;;;23.00;100.00
45941;BME280;31858;46.008;8.978;2023-06-22T09:12:13;94940.94;;;23.06;100.00
45941;BME280;31858;46.008;8.978;2023-06-22T09:22:15;94937.34;;;23.31;100.00
45941;BME280;31858;46.008;8.978;2023-06-22T09:32:17;94944.50;;;23.47;100.00
45941;BME280;31858;46.008;8.978;2023-06-22T09:42:19;94947.41;;;23.74;100.00
45941;BME280;31858;46.008;8.978;2023-06-22T09:52:22;94928.09;;;23.81;100.00
45941;BME280;31858;46.008;8.978;2023-06-22T10:02:24;94906.22;;;23.94;100.00
45941;BME280;31858;46.008;8.978;2023-06-22T10:12:27;94898.25;;;24.08;100.00
45941;BME280;31858;46.008;8.978;2023-06-22T10:22:28;94883.75;;;24.21;100.00
45941;BME280;31858;46.008;8.978;2023-06-22T10:32:31;94855.22;;;24.44;100.00
45941;BME280;31858;46.008;8.978;2023-06-22T10:42:33;94835.81;;;24.87;100.00
45941;BME280;31858;46.008;8.978;2023-06-22T10:52:36;94831.69;;;25.19;100.00
45941;BME280;31858;46.008;8.978;2023-06-22T11:02:38;94814.63;;;25.52;100.00
45941;BME280;31858;46.008;8.978;2023-06-22T11:12:41;94800.94;;;25.61;86.99
45941;BME280;31858;46.008;8.978;2023-06-22T11:22:43;94798.94;;;25.71;80.50
45941;BME280;31858;46.008;8.978;2023-06-22T11:32:46;94784.88;;;26.11;70.82
45941;BME280;31858;46.008;8.978;2023-06-22T11:42:47;94775.47;;;26.12;60.49
45941;BME280;31858;46.008;8.978;2023-06-22T11:52:50;94770.34;;;26.28;73.92
45941;BME280;31858;46.008;8.978;2023-06-22T12:02:53;94754.03;;;26.58;71.62
45941;BME280;31858;46.008;8.978;2023-06-22T12:12:56;94782.50;;;26.66;63.03
45941;BME280;31858;46.008;8.978;2023-06-22T12:23:01;94764.97;;;26.73;66.92
45941;BME280;31858;46.008;8.978;2023-06-22T12:33:04;94771.84;;;27.27;67.23
45941;BME280;31858;46.008;8.978;2023-06-22T12:43:06;94774.75;;;27.38;66.14
45941;BME280;31858;46.008;8.978;2023-06-22T12:53:09;94773.97;;;27.38;73.48
45941;BME280;31858;46.008;8.978;2023-06-22T13:03:10;94774.78;;;27.23;76.93
45941;BME280;31858;46.008;8.978;2023-06-22T13:13:14;94748.22;;;27.09;83.57
45941;BME280;31858;46.008;8.978;2023-06-22T13:23:15;94716.53;;;27.03;90.33
45941;BME280;31858;46.008;8.978;2023-06-22T13:33:18;94601.69;;;27.03;100.00
45941;BME280;31858;46.008;8.978;2023-06-22T13:43:20;94660.34;;;26.72;96.63
45941;BME280;31858;46.008;8.978;2023-06-22T13:53:24;94699.94;;;26.62;100.00
45941;BME280;31858;46.008;8.978;2023-06-22T14:03:26;94714.16;;;26.51;100.00
45941;BME280;31858;46.008;8.978;2023-06-22T14:13:29;94712.22;;;26.28;99.64
45941;BME280;31858;46.008;8.978;2023-06-22T14:23:30;94693.75;;;26.23;100.00
45941;BME280;31858;46.008;8.978;2023-06-22T14:33:33;94672.75;;;26.29;100.00
45941;BME280;31858;46.008;8.978;2023-06-22T14:43:35;94668.00;;;26.53;100.00
45941;BME280;31858;46.008;8.978;2023-06-22T14:53:38;94693.69;;;26.91;100.00
45941;BME280;31858;46.008;8.978;2023-06-22T15:03:39;94704.41;;;27.24;100.00
45941;BME280;31858;46.008;8.978;2023-06-22T15:13:45;94697.88;;;27.01;100.00
45941;BME280;31858;46.008;8.978;2023-06-22T15:23:46;94716.03;;;26.89;100.00
45941;BME280;31858;46.008;8.978;2023-06-22T15:33:49;94753.47;;;26.69;100.00
45941;BME280;31858;46.008;8.978;2023-06-22T15:43:51;94761.25;;;26.46;100.00
45941;BME280;31858;46.008;8.978;2023-06-22T15:53:54;94765.34;;;26.27;100.00
45941;BME280;31858;46.008;8.978;2023-06-22T16:03:55;94780.16;;;25.96;100.00
45941;BME280;31858;46.008;8.978;2023-06-22T16:13:58;94699.88;;;26.18;100.00
45941;BME280;31858;46.008;8.978;2023-06-22T16:24:00;94702.03;;;25.75;100.00
45941;BME280;31858;46.008;8.978;2023-06-22T16:34:03;94713.38;;;25.50;100.00
45941;BME280;31858;46.008;8.978;2023-06-22T16:44:04;94745.25;;;25.44;100.00
45941;BME280;31858;46.008;8.978;2023-06-22T16:54:08;94728.34;;;25.30;100.00
45941;BME280;31858;46.008;8.978;2023-06-22T17:04:10;94674.38;;;25.34;100.00
45941;BME280;31858;46.008;8.978;2023-06-22T17:14:14;94691.91;;;25.43;100.00
45941;BME280;31858;46.008;8.978;2023-06-22T17:24:16;94659.06;;;25.61;100.00
45941;BME280;31858;46.008;8.978;2023-06-22T17:34:20;94666.09;;;25.53;100.00
45941;BME280;31858;46.008;8.978;2023-06-22T17:44:25;94666.84;;;25.29;100.00
45941;BME280;31858;46.008;8.978;2023-06-22T17:54:30;94648.63;;;25.35;100.00
45941;BME280;31858;46.008;8.978;2023-06-22T18:04:32;94648.34;;;25.00;100.00
45941;BME280;31858;46.008;8.978;2023-06-22T18:14:35;94604.16;;;24.96;100.00
45941;BME280;31858;46.008;8.978;2023-06-22T18:24:39;94610.00;;;25.04;100.00
45941;BME280;31858;46.008;8.978;2023-06-22T18:34:43;94625.31;;;25.01;100.00
45941;BME280;31858;46.008;8.978;2023-06-22T18:44:51;94600.00;;;25.10;100.00
45941;BME280;31858;46.008;8.978;2023-06-22T18:54:55;94589.31;;;24.88;100.00
45941;BME280;31858;46.008;8.978;2023-06-22T19:05:05;94595.69;;;24.61;100.00
45941;BME280;31858;46.008;8.978;2023-06-22T19:15:12;94571.59;;;24.18;100.00
45941;BME280;31858;46.008;8.978;2023-06-22T19:25:18;94565.47;;;23.90;100.00
45941;BME280;31858;46.008;8.978;2023-06-22T19:35:21;94561.09;;;23.74;100.00
45941;BME280;31858;46.008;8.978;2023-06-22T19:45:23;94552.19;;;23.55;100.00
45941;BME280;31858;46.008;8.978;2023-06-22T19:55:26;94565.63;;;23.50;100.00
45941;BME280;31858;46.008;8.978;2023-06-22T20:05:27;94576.50;;;23.40;100.00
45941;BME280;31858;46.008;8.978;2023-06-22T20:15:30;94577.13;;;23.35;100.00
45941;BME280;31858;46.008;8.978;2023-06-22T20:25:34;94586.78;;;23.36;100.00
45941;BME280;31858;46.008;8.978;2023-06-22T20:35:37;94585.88;;;23.39;100.00
45941;BME280;31858;46.008;8.978;2023-06-22T20:45:39;94566.09;;;23.21;100.00
45941;BME280;31858;46.008;8.978;2023-06-22T20:55:42;94553.25;;;23.12;100.00
45941;BME280;31858;46.008;8.978;2023-06-22T21:05:44;94540.41;;;23.22;100.00
45941;BME280;31858;46.008;8.978;2023-06-22T21:15:48;94510.66;;;23.00;100.00
45941;BME280;31858;46.008;8.978;2023-06-22T21:25:49;94460.25;;;23.17;100.00
45941;BME280;31858;46.008;8.978;2023-06-22T21:35:52;94421.88;;;23.24;100.00
45941;BME280;31858;46.008;8.978;2023-06-22T21:45:54;94404.97;;;23.20;100.00
45941;BME280;31858;46.008;8.978;2023-06-22T21:55:56;94413.41;;;23.31;100.00
45941;BME280;31858;46.008;8.978;2023-06-22T22:05:58;94456.16;;;23.03;100.00
45941;BME280;31858;46.008;8.978;2023-06-22T22:16:01;94512.09;;;22.73;100.00
45941;BME280;31858;46.008;8.978;2023-06-22T22:26:03;94633.81;;;21.82;100.00
45941;BME280;31858;46.008;8.978;2023-06-22T22:36:06;94656.84;;;21.30;100.00
45941;BME280;31858;46.008;8.978;2023-06-22T22:46:09;94642.63;;;21.39;100.00
45941;BME280;31858;46.008;8.978;2023-06-22T22:56:12;94665.19;;;21.36;100.00
45941;BME280;31858;46.008;8.978;2023-06-22T23:06:15;94626.19;;;21.33;100.00
45941;BME280;31858;46.008;8.978;2023-06-22T23:16:18;94654.81;;;21.22;100.00
45941;BME280;31858;46.008;8.978;2023-06-22T23:26:19;94643.09;;;21.12;100.00
45941;BME280;31858;46.008;8.978;2023-06-22T23:36:22;94640.72;;;21.14;100.00
45941;BME280;31858;46.008;8.978;2023-06-22T23:46:25;94633.56;;;21.20;100.00
45941;BME280;31858;46.008;8.978;2023-06-22T23:56:32;94662.84;;;21.00;100.00
